Terminal Aerodrome Forecast
Issued by NWS

Home | Current Version | Previous Version | Text Only | Print | Product List | Glossary On
Versions: 1 2 3 4 5 6 7 8 9 10 11 12
000
FTUS45 KRIW 181700
TAFCOD
TAF
KCOD 181720Z 1818/1918 15006KT P6SM SCT100
     FM182100 VRB06KT P6SM VCSH SCT100 BKN150
     FM190300 19006KT P6SM BKN150
     FM191500 35007KT P6SM BKN120=

USA.gov is the U.S. government's official web portal to all federal, state and local government web resources and services.